In Rescue
 
Open Full Screen Window  High Contrast Mode
Wind Gusting 00 knots
10
June 20, 2021 11:00 AM EDT
Weather Information
Wind Direction
  230 °
Wind Speed
  10 kt (12 mph)
Wind Gust
  00 kt (0 mph)
Altimeter
29.79 in
Visibility
10 SM
Temperature
26° C
79° F
Dewpoint
21° C
70° F
Humidity
74%
Sky Condition
Overcast @ 2,000 ft
MVFR

METAR KAXV 201500Z AUTO 23010KT 10SM OVC020 26/21 A2979 RMK AO2

FAA Disclaimer: The data displayed is for advisory purposes only and is not to be used for flight planning or operations.